No.3tokuyomaru — JD3132 — position and weather

sailwx.info

Track history (hours):
 
Tides and Currents Weather Stations Pressure Air Temp Water Temp Dewpoint Dewpoint Depression Visibility Wind Speed Wind Dir Waves Ship Positions

No.3tokuyomaru

Last reported at 2017-Apr-28 12:00 UTC. Time now 2017-Apr-28 12:23 UTC.
Position N 34°34' E 135°23'.

Length 67 m; draft 4.6 m.

Type: Tanker. MMSI: 431002151.

Date/timePositionNaut miles runAvg speedWind from/ knotsBaromVisibWave heightAir tempDewpointWater temp
2017-Apr-28 12:00N 34°34' E 135°23'3 5.9
2017-Apr-28 11:29N 34°33' E 135°20'612.4
2017-Apr-28 11:01N 34°30' E 135°14'712.3
2017-Apr-28 10:28N 34°26' E 135°08'234 9.0
2017-Apr-27 08:22N 35°15' E 139°46'511.9
2017-Apr-27 07:58N 35°19' E 139°43'511.4
2017-Apr-27 07:31N 35°24' E 139°43'611.8
2017-Apr-27 07:00N 35°29' E 139°48'2 4.6
2017-Apr-27 06:30N 35°30' E 139°45'0 0.0
2017-Apr-27 04:19N 35°30' E 139°45'0 0.0
2017-Apr-27 03:43N 35°30' E 139°45'0 0.0
2017-Apr-27 03:25N 35°30' E 139°45'0 0.0
2017-Apr-27 02:07N 35°30' E 139°45'0 0.0
2017-Apr-27 01:55N 35°30' E 139°45'0 0.0
2017-Apr-27 01:25N 35°30' E 139°45'0 0.0
2017-Apr-27 01:00N 35°30' E 139°45'3 5.1
2017-Apr-27 00:30N 35°29' E 139°48'1 2.0
2017-Apr-26 23:59N 35°29' E 139°49'0 0.0
2017-Apr-26 23:29N 35°29' E 139°49'0 0.0
2017-Apr-26 22:59N 35°29' E 139°49'0 0.1
2017-Apr-26 22:29N 35°29' E 139°49'0 0.0
2017-Apr-26 21:56N 35°29' E 139°49'0 0.0
2017-Apr-26 21:29N 35°29' E 139°49'0 0.0
2017-Apr-26 20:59N 35°29' E 139°49'0 0.1
2017-Apr-26 20:23N 35°29' E 139°49'0 0.0
2017-Apr-26 19:53N 35°29' E 139°49'0 0.0
2017-Apr-26 19:29N 35°29' E 139°49'0 0.1
2017-Apr-26 18:59N 35°29' E 139°49'0 0.0
2017-Apr-26 18:26N 35°29' E 139°49'1 1.2
2017-Apr-26 18:00N 35°28' E 139°48'613.0
2017-Apr-26 17:30N 35°22' E 139°45'612.2
2017-Apr-26 17:00N 35°16' E 139°46'19 0.6
2017-Apr-25 07:30N 34°57' E 139°45'611.6
2017-Apr-25 07:00N 35°03' E 139°44'612.2
2017-Apr-25 06:30N 35°09' E 139°45'611.8
2017-Apr-25 06:00N 35°15' E 139°46'611.1
2017-Apr-25 05:31N 35°20' E 139°43'611.0
2017-Apr-25 05:00N 35°25' E 139°44'611.1
2017-Apr-25 04:30N 35°30' E 139°48'2 0.3
2017-Apr-24 21:51N 35°31' E 139°46'1 1.7
2017-Apr-24 21:31N 35°31' E 139°46'4 3.0
2017-Apr-24 20:17N 35°30' E 139°51'0 0.1
2017-Apr-24 19:59N 35°30' E 139°51'0 0.0
2017-Apr-24 19:29N 35°30' E 139°51'0 0.0
2017-Apr-24 18:59N 35°30' E 139°51'0 0.0
2017-Apr-24 18:26N 35°30' E 139°51'0 0.0
2017-Apr-24 17:44N 35°30' E 139°51'0 0.2
2017-Apr-24 17:26N 35°30' E 139°51'0 0.0
2017-Apr-24 16:59N 35°30' E 139°51'0 0.0
2017-Apr-24 16:29N 35°30' E 139°51'0 0.0
2017-Apr-24 15:59N 35°30' E 139°51'0 1.0
2017-Apr-24 15:30N 35°31' E 139°51'12 0.7
2017-Apr-23 23:43N 35°33' E 140°05'9 0.4
2017-Apr-23 00:54N 35°31' E 139°55'512.1
2017-Apr-23 00:30N 35°30' E 139°49'3 1.8
2017-Apr-22 22:59N 35°31' E 139°46'2 4.2
2017-Apr-22 22:31N 35°30' E 139°47'2 4.0
2017-Apr-22 21:59N 35°29' E 139°46'0 0.0
2017-Apr-22 21:29N 35°29' E 139°46'0 0.0
2017-Apr-22 20:59N 35°29' E 139°46'0 0.0
2017-Apr-22 20:29N 35°29' E 139°46'0 0.0
2017-Apr-22 19:59N 35°29' E 139°46'0 0.0
2017-Apr-22 19:29N 35°29' E 139°46'0 0.0
2017-Apr-22 18:59N 35°29' E 139°46'0 0.0
2017-Apr-22 18:29N 35°29' E 139°46'0 0.0
2017-Apr-22 17:59N 35°29' E 139°46'0 0.0
2017-Apr-22 17:29N 35°29' E 139°46'0 0.0
2017-Apr-22 16:59N 35°29' E 139°46'0 0.1
2017-Apr-22 16:29N 35°29' E 139°46'0 0.0
2017-Apr-22 15:59N 35°29' E 139°46'0 0.1
2017-Apr-22 15:29N 35°29' E 139°46'0 0.0
2017-Apr-22 14:59N 35°29' E 139°46'0 0.0
2017-Apr-22 14:29N 35°29' E 139°46'0 0.0
2017-Apr-22 13:29N 35°29' E 139°46'0 0.0
2017-Apr-22 12:59N 35°29' E 139°46'0 0.0
2017-Apr-22 12:29N 35°29' E 139°46'0 0.0
2017-Apr-22 11:59N 35°29' E 139°46'0 0.0
2017-Apr-22 11:26N 35°29' E 139°46'0 0.0
2017-Apr-22 10:59N 35°29' E 139°46'0 0.0
2017-Apr-22 10:26N 35°29' E 139°46'0 0.0
2017-Apr-22 09:59N 35°29' E 139°46'0 0.0
2017-Apr-22 09:29N 35°29' E 139°46'0 0.0
2017-Apr-22 08:59N 35°29' E 139°46'0 0.0
2017-Apr-22 08:29N 35°29' E 139°46'0 0.0
2017-Apr-22 07:59N 35°29' E 139°46'0 0.0
2017-Apr-22 07:29N 35°29' E 139°46'0 0.0
2017-Apr-22 06:59N 35°29' E 139°46'0 0.0
2017-Apr-22 06:23N 35°29' E 139°46'0 0.0
2017-Apr-22 05:59N 35°29' E 139°46'0 0.0
2017-Apr-22 05:29N 35°29' E 139°46'0 0.0
2017-Apr-22 04:56N 35°29' E 139°46'0 0.0
2017-Apr-22 04:29N 35°29' E 139°46'0 0.0
2017-Apr-22 03:53N 35°29' E 139°46'0 0.0
2017-Apr-22 03:29N 35°29' E 139°46'0 0.0
2017-Apr-22 02:59N 35°29' E 139°46'0 0.0
2017-Apr-22 02:29N 35°29' E 139°46'0 0.0
2017-Apr-22 01:59N 35°29' E 139°46'0 0.0
2017-Apr-22 01:29N 35°29' E 139°46'1 2.8
2017-Apr-22 01:00N 35°28' E 139°45'2 4.6
2017-Apr-22 00:30N 35°30' E 139°44'2 1.5
2017-Apr-21 23:04N 35°31' E 139°46'0 0.1
2017-Apr-21 23:00N 35°31' E 139°46'2 4.4
2017-Apr-21 22:31N 35°30' E 139°48'2 3.3
2017-Apr-21 21:59N 35°29' E 139°46'0 0.0
2017-Apr-21 21:29N 35°29' E 139°46'0 0.0
2017-Apr-21 20:59N 35°29' E 139°46'0 0.0
2017-Apr-21 20:29N 35°29' E 139°46'0 0.0
2017-Apr-21 19:59N 35°29' E 139°46'0 0.0
2017-Apr-21 19:29N 35°29' E 139°46'0 0.0
2017-Apr-21 18:59N 35°29' E 139°46'0 0.0
2017-Apr-21 18:29N 35°29' E 139°46'0 0.0
2017-Apr-21 17:59N 35°29' E 139°46'0 0.1
2017-Apr-21 17:29N 35°29' E 139°46'0 0.1
2017-Apr-21 16:59N 35°29' E 139°46'0 0.0
2017-Apr-21 16:29N 35°29' E 139°46'0 0.0
2017-Apr-21 15:59N 35°29' E 139°46'0 0.0
2017-Apr-21 15:29N 35°29' E 139°46'0 0.0
2017-Apr-21 14:59N 35°29' E 139°46'0 0.0
2017-Apr-21 14:29N 35°29' E 139°46'0 0.0
2017-Apr-21 13:26N 35°29' E 139°46'0 0.0
2017-Apr-21 12:59N 35°29' E 139°46'0 0.0
2017-Apr-21 12:29N 35°29' E 139°46'0 0.0
2017-Apr-21 11:59N 35°29' E 139°46'0 0.0
2017-Apr-21 11:29N 35°29' E 139°46'0 0.0
2017-Apr-21 10:59N 35°29' E 139°46'0 0.0
2017-Apr-21 10:29N 35°29' E 139°46'0 0.0
2017-Apr-21 09:59N 35°29' E 139°46'0 0.1
2017-Apr-21 09:23N 35°29' E 139°46'0 0.1
2017-Apr-21 08:59N 35°29' E 139°46'0 0.0
2017-Apr-21 08:29N 35°29' E 139°46'0 0.0
2017-Apr-21 08:00N 35°29' E 139°46'2 3.4
2017-Apr-21 07:30N 35°30' E 139°46'1 0.5
2017-Apr-21 05:26N 35°31' E 139°46'0 0.7
2017-Apr-21 05:01N 35°31' E 139°46'0 0.0
2017-Apr-21 04:26N 35°31' E 139°46'0 0.0
2017-Apr-21 03:50N 35°31' E 139°46'0 0.0
2017-Apr-21 00:51N 35°31' E 139°46'1 2.3
2017-Apr-21 00:30N 35°30' E 139°46'2 3.6
2017-Apr-21 00:00N 35°29' E 139°46'0 0.0
2017-Apr-20 23:27N 35°29' E 139°46'0 0.0
2017-Apr-20 23:00N 35°29' E 139°46'0 0.0
2017-Apr-20 22:30N 35°29' E 139°46'0 0.0
2017-Apr-20 22:00N 35°29' E 139°46'0 0.0
2017-Apr-20 21:30N 35°29' E 139°46'0 0.0
2017-Apr-20 20:57N 35°29' E 139°46'0 0.0
2017-Apr-20 20:30N 35°29' E 139°46'0 0.1
2017-Apr-20 20:00N 35°29' E 139°46'0 0.0
2017-Apr-20 19:30N 35°29' E 139°46'0 0.0
2017-Apr-20 19:00N 35°29' E 139°46'0 0.0
2017-Apr-20 18:30N 35°29' E 139°46'0 0.0
2017-Apr-20 18:00N 35°29' E 139°46'0 0.0
2017-Apr-20 17:30N 35°29' E 139°46'0 0.0
2017-Apr-20 17:00N 35°29' E 139°46'0 0.0
2017-Apr-20 16:30N 35°29' E 139°46'0 0.0
2017-Apr-20 16:00N 35°29' E 139°46'0 0.0
2017-Apr-20 15:30N 35°29' E 139°46'0 0.0
2017-Apr-20 15:00N 35°29' E 139°46'0 0.0
2017-Apr-20 14:30N 35°29' E 139°46'0 0.0
2017-Apr-20 13:30N 35°29' E 139°46'0 0.0
2017-Apr-20 13:00N 35°29' E 139°46'0 0.0
2017-Apr-20 12:30N 35°29' E 139°46'0 0.0
2017-Apr-20 12:00N 35°29' E 139°46'0 0.0
2017-Apr-20 11:30N 35°29' E 139°46'0 0.0
2017-Apr-20 11:00N 35°29' E 139°46'0 0.0
2017-Apr-20 10:30N 35°29' E 139°46'3 5.0
2017-Apr-20 10:00N 35°31' E 139°46'0 0.1
2017-Apr-20 06:31N 35°31' E 139°46'0 0.0
2017-Apr-20 06:29N 35°31' E 139°46'0 0.6
2017-Apr-20 06:00N 35°31' E 139°46'0 0.0
2017-Apr-20 05:19N 35°31' E 139°46'0 0.0
2017-Apr-20 04:49N 35°31' E 139°46'0 0.0
2017-Apr-20 04:28N 35°31' E 139°46'0 0.0
2017-Apr-20 03:52N 35°31' E 139°46'0 0.0
2017-Apr-20 03:19N 35°31' E 139°46'0 0.0
2017-Apr-20 02:52N 35°31' E 139°46'0 0.0
2017-Apr-20 02:19N 35°31' E 139°46'0 0.0
2017-Apr-20 01:58N 35°31' E 139°46'0 0.0
2017-Apr-20 01:28N 35°31' E 139°46'0 0.0
2017-Apr-20 00:46N 35°31' E 139°46'0 0.0
2017-Apr-20 00:28N 35°31' E 139°46'0 0.0
2017-Apr-19 23:58N 35°31' E 139°46'0 0.0
2017-Apr-19 23:25N 35°31' E 139°46'0 1.2
2017-Apr-19 23:00N 35°31' E 139°46'2 4.2
2017-Apr-19 22:31N 35°29' E 139°46'0 0.0
2017-Apr-19 21:58N 35°29' E 139°46'0 0.0
2017-Apr-19 21:28N 35°29' E 139°46'0 0.0
2017-Apr-19 20:58N 35°29' E 139°46'0 0.0
2017-Apr-19 20:28N 35°29' E 139°46'0 0.0
2017-Apr-19 19:58N 35°29' E 139°46'0 0.0
2017-Apr-19 19:28N 35°29' E 139°46'0 0.0
2017-Apr-19 18:58N 35°29' E 139°46'0 0.0
2017-Apr-19 18:28N 35°29' E 139°46'0 0.0
2017-Apr-19 17:58N 35°29' E 139°46'0 0.0
2017-Apr-19 17:28N 35°29' E 139°46'0 0.0
2017-Apr-19 16:58N 35°29' E 139°46'0 0.0
2017-Apr-19 16:28N 35°29' E 139°46'0 0.1
2017-Apr-19 15:58N 35°29' E 139°46'0 0.1
2017-Apr-19 15:28N 35°29' E 139°46'0 0.1
2017-Apr-19 14:58N 35°29' E 139°46'0 0.1
2017-Apr-19 14:25N 35°29' E 139°46'0 0.0
2017-Apr-19 13:25N 35°29' E 139°46'0 0.0
2017-Apr-19 12:58N 35°29' E 139°46'0 0.1
2017-Apr-19 12:28N 35°29' E 139°46'0 0.1
2017-Apr-19 11:58N 35°29' E 139°46'0 0.0
2017-Apr-19 11:28N 35°29' E 139°46'0 0.0
2017-Apr-19 10:55N 35°29' E 139°46'0 0.0
2017-Apr-19 10:28N 35°29' E 139°46'0 0.0
2017-Apr-19 09:55N 35°29' E 139°46'0 0.0
2017-Apr-19 09:28N 35°29' E 139°46'0 0.0
2017-Apr-19 08:58N 35°29' E 139°46'0 0.1
2017-Apr-19 08:28N 35°29' E 139°46'0 0.0
2017-Apr-19 07:58N 35°29' E 139°46'0 0.0
2017-Apr-19 07:25N 35°29' E 139°46'0 0.1
2017-Apr-19 06:53N 35°29' E 139°46'2 5.2
2017-Apr-19 06:30N 35°30' E 139°47'2 0.9
2017-Apr-19 04:21N 35°31' E 139°46'0 0.9
2017-Apr-19 04:01N 35°31' E 139°46'0 0.0
2017-Apr-19 03:30N 35°31' E 139°46'0 0.0
2017-Apr-19 01:45N 35°31' E 139°46'0 0.0
2017-Apr-19 01:27N 35°31' E 139°46'0 0.0
2017-Apr-19 00:57N 35°31' E 139°46'0 0.0
2017-Apr-19 00:30N 35°31' E 139°46'0 0.0
2017-Apr-19 00:00N 35°31' E 139°46'2 3.9
2017-Apr-18 23:30N 35°30' E 139°47'2 3.3
2017-Apr-18 22:58N 35°29' E 139°46'0 0.0
2017-Apr-18 22:31N 35°29' E 139°46'0 0.1
2017-Apr-18 21:55N 35°29' E 139°46'0 0.0
2017-Apr-18 21:28N 35°29' E 139°46'0 0.0
2017-Apr-18 20:58N 35°29' E 139°46'0 0.0
2017-Apr-18 20:28N 35°29' E 139°46'0 0.0
2017-Apr-18 19:58N 35°29' E 139°46'0 0.0
2017-Apr-18 19:25N 35°29' E 139°46'0 0.1
2017-Apr-18 19:00N 35°29' E 139°45'0 0.1
2017-Apr-18 18:28N 35°29' E 139°46'0 0.0
2017-Apr-18 18:00N 35°29' E 139°46'0 0.0
2017-Apr-18 17:28N 35°29' E 139°46'0 0.0
2017-Apr-18 16:58N 35°29' E 139°46'0 0.1
2017-Apr-18 16:28N 35°29' E 139°45'0 0.0
2017-Apr-18 15:57N 35°29' E 139°45'0 0.0
2017-Apr-18 15:25N 35°29' E 139°45'0 0.0
2017-Apr-18 14:55N 35°29' E 139°45'0 0.1
2017-Apr-18 13:55N 35°29' E 139°46'0 0.0
2017-Apr-18 13:28N 35°29' E 139°46'0 0.1
2017-Apr-18 13:01N 35°29' E 139°45'0 0.1
2017-Apr-18 12:25N 35°29' E 139°46'0 0.0
2017-Apr-18 12:00N 35°29' E 139°46'  
Track history (hours):
 
Tides and Currents Weather Stations Pressure Air Temp Water Temp Dewpoint Dewpoint Depression Visibility Wind Speed Wind Dir Waves Ship Positions

No.3tokuyomaru

Last reported at 2017-Apr-28 12:00 UTC. Time now 2017-Apr-28 12:23 UTC.
Position N 34°34' E 135°23'.

Length 67 m; draft 4.6 m.

Type: Tanker. MMSI: 431002151.

Date/timePositionNaut miles runAvg speedWind from/ knotsBaromVisibWave heightAir tempDewpointWater temp
2017-Apr-28 12:00N 34°34' E 135°23'3 5.9
2017-Apr-28 11:29N 34°33' E 135°20'612.4
2017-Apr-28 11:01N 34°30' E 135°14'712.3
2017-Apr-28 10:28N 34°26' E 135°08'234 9.0
2017-Apr-27 08:22N 35°15' E 139°46'511.9
2017-Apr-27 07:58N 35°19' E 139°43'511.4
2017-Apr-27 07:31N 35°24' E 139°43'611.8
2017-Apr-27 07:00N 35°29' E 139°48'2 4.6
2017-Apr-27 06:30N 35°30' E 139°45'0 0.0
2017-Apr-27 04:19N 35°30' E 139°45'0 0.0
2017-Apr-27 03:43N 35°30' E 139°45'0 0.0
2017-Apr-27 03:25N 35°30' E 139°45'0 0.0
2017-Apr-27 02:07N 35°30' E 139°45'0 0.0
2017-Apr-27 01:55N 35°30' E 139°45'0 0.0
2017-Apr-27 01:25N 35°30' E 139°45'0 0.0
2017-Apr-27 01:00N 35°30' E 139°45'3 5.1
2017-Apr-27 00:30N 35°29' E 139°48'1 2.0
2017-Apr-26 23:59N 35°29' E 139°49'0 0.0
2017-Apr-26 23:29N 35°29' E 139°49'0 0.0
2017-Apr-26 22:59N 35°29' E 139°49'0 0.1
2017-Apr-26 22:29N 35°29' E 139°49'0 0.0
2017-Apr-26 21:56N 35°29' E 139°49'0 0.0
2017-Apr-26 21:29N 35°29' E 139°49'0 0.0
2017-Apr-26 20:59N 35°29' E 139°49'0 0.1
2017-Apr-26 20:23N 35°29' E 139°49'0 0.0
2017-Apr-26 19:53N 35°29' E 139°49'0 0.0
2017-Apr-26 19:29N 35°29' E 139°49'0 0.1
2017-Apr-26 18:59N 35°29' E 139°49'0 0.0
2017-Apr-26 18:26N 35°29' E 139°49'1 1.2
2017-Apr-26 18:00N 35°28' E 139°48'613.0
2017-Apr-26 17:30N 35°22' E 139°45'612.2
2017-Apr-26 17:00N 35°16' E 139°46'19 0.6
2017-Apr-25 07:30N 34°57' E 139°45'611.6
2017-Apr-25 07:00N 35°03' E 139°44'612.2
2017-Apr-25 06:30N 35°09' E 139°45'611.8
2017-Apr-25 06:00N 35°15' E 139°46'611.1
2017-Apr-25 05:31N 35°20' E 139°43'611.0
2017-Apr-25 05:00N 35°25' E 139°44'611.1
2017-Apr-25 04:30N 35°30' E 139°48'2 0.3
2017-Apr-24 21:51N 35°31' E 139°46'1 1.7
2017-Apr-24 21:31N 35°31' E 139°46'4 3.0
2017-Apr-24 20:17N 35°30' E 139°51'0 0.1
2017-Apr-24 19:59N 35°30' E 139°51'0 0.0
2017-Apr-24 19:29N 35°30' E 139°51'0 0.0
2017-Apr-24 18:59N 35°30' E 139°51'0 0.0
2017-Apr-24 18:26N 35°30' E 139°51'0 0.0
2017-Apr-24 17:44N 35°30' E 139°51'0 0.2
2017-Apr-24 17:26N 35°30' E 139°51'0 0.0
2017-Apr-24 16:59N 35°30' E 139°51'0 0.0
2017-Apr-24 16:29N 35°30' E 139°51'0 0.0
2017-Apr-24 15:59N 35°30' E 139°51'0 1.0
2017-Apr-24 15:30N 35°31' E 139°51'12 0.7
2017-Apr-23 23:43N 35°33' E 140°05'9 0.4
2017-Apr-23 00:54N 35°31' E 139°55'512.1
2017-Apr-23 00:30N 35°30' E 139°49'3 1.8
2017-Apr-22 22:59N 35°31' E 139°46'2 4.2
2017-Apr-22 22:31N 35°30' E 139°47'2 4.0
2017-Apr-22 21:59N 35°29' E 139°46'0 0.0
2017-Apr-22 21:29N 35°29' E 139°46'0 0.0
2017-Apr-22 20:59N 35°29' E 139°46'0 0.0
2017-Apr-22 20:29N 35°29' E 139°46'0 0.0
2017-Apr-22 19:59N 35°29' E 139°46'0 0.0
2017-Apr-22 19:29N 35°29' E 139°46'0 0.0
2017-Apr-22 18:59N 35°29' E 139°46'0 0.0
2017-Apr-22 18:29N 35°29' E 139°46'0 0.0
2017-Apr-22 17:59N 35°29' E 139°46'0 0.0
2017-Apr-22 17:29N 35°29' E 139°46'0 0.0
2017-Apr-22 16:59N 35°29' E 139°46'0 0.1
2017-Apr-22 16:29N 35°29' E 139°46'0 0.0
2017-Apr-22 15:59N 35°29' E 139°46'0 0.1
2017-Apr-22 15:29N 35°29' E 139°46'0 0.0
2017-Apr-22 14:59N 35°29' E 139°46'0 0.0
2017-Apr-22 14:29N 35°29' E 139°46'0 0.0
2017-Apr-22 13:29N 35°29' E 139°46'0 0.0
2017-Apr-22 12:59N 35°29' E 139°46'0 0.0
2017-Apr-22 12:29N 35°29' E 139°46'0 0.0
2017-Apr-22 11:59N 35°29' E 139°46'0 0.0
2017-Apr-22 11:26N 35°29' E 139°46'0 0.0
2017-Apr-22 10:59N 35°29' E 139°46'0 0.0
2017-Apr-22 10:26N 35°29' E 139°46'0 0.0
2017-Apr-22 09:59N 35°29' E 139°46'0 0.0
2017-Apr-22 09:29N 35°29' E 139°46'0 0.0
2017-Apr-22 08:59N 35°29' E 139°46'0 0.0
2017-Apr-22 08:29N 35°29' E 139°46'0 0.0
2017-Apr-22 07:59N 35°29' E 139°46'0 0.0
2017-Apr-22 07:29N 35°29' E 139°46'0 0.0
2017-Apr-22 06:59N 35°29' E 139°46'0 0.0
2017-Apr-22 06:23N 35°29' E 139°46'0 0.0
2017-Apr-22 05:59N 35°29' E 139°46'0 0.0
2017-Apr-22 05:29N 35°29' E 139°46'0 0.0
2017-Apr-22 04:56N 35°29' E 139°46'0 0.0
2017-Apr-22 04:29N 35°29' E 139°46'0 0.0
2017-Apr-22 03:53N 35°29' E 139°46'0 0.0
2017-Apr-22 03:29N 35°29' E 139°46'0 0.0
2017-Apr-22 02:59N 35°29' E 139°46'0 0.0
2017-Apr-22 02:29N 35°29' E 139°46'0 0.0
2017-Apr-22 01:59N 35°29' E 139°46'0 0.0
2017-Apr-22 01:29N 35°29' E 139°46'1 2.8
2017-Apr-22 01:00N 35°28' E 139°45'2 4.6
2017-Apr-22 00:30N 35°30' E 139°44'2 1.5
2017-Apr-21 23:04N 35°31' E 139°46'0 0.1
2017-Apr-21 23:00N 35°31' E 139°46'2 4.4
2017-Apr-21 22:31N 35°30' E 139°48'2 3.3
2017-Apr-21 21:59N 35°29' E 139°46'0 0.0
2017-Apr-21 21:29N 35°29' E 139°46'0 0.0
2017-Apr-21 20:59N 35°29' E 139°46'0 0.0
2017-Apr-21 20:29N 35°29' E 139°46'0 0.0
2017-Apr-21 19:59N 35°29' E 139°46'0 0.0
2017-Apr-21 19:29N 35°29' E 139°46'0 0.0
2017-Apr-21 18:59N 35°29' E 139°46'0 0.0
2017-Apr-21 18:29N 35°29' E 139°46'0 0.0
2017-Apr-21 17:59N 35°29' E 139°46'0 0.1
2017-Apr-21 17:29N 35°29' E 139°46'0 0.1
2017-Apr-21 16:59N 35°29' E 139°46'0 0.0
2017-Apr-21 16:29N 35°29' E 139°46'0 0.0
2017-Apr-21 15:59N 35°29' E 139°46'0 0.0
2017-Apr-21 15:29N 35°29' E 139°46'0 0.0
2017-Apr-21 14:59N 35°29' E 139°46'0 0.0
2017-Apr-21 14:29N 35°29' E 139°46'0 0.0
2017-Apr-21 13:26N 35°29' E 139°46'0 0.0
2017-Apr-21 12:59N 35°29' E 139°46'0 0.0
2017-Apr-21 12:29N 35°29' E 139°46'0 0.0
2017-Apr-21 11:59N 35°29' E 139°46'0 0.0
2017-Apr-21 11:29N 35°29' E 139°46'0 0.0
2017-Apr-21 10:59N 35°29' E 139°46'0 0.0
2017-Apr-21 10:29N 35°29' E 139°46'0 0.0
2017-Apr-21 09:59N 35°29' E 139°46'0 0.1
2017-Apr-21 09:23N 35°29' E 139°46'0 0.1
2017-Apr-21 08:59N 35°29' E 139°46'0 0.0
2017-Apr-21 08:29N 35°29' E 139°46'0 0.0
2017-Apr-21 08:00N 35°29' E 139°46'2 3.4
2017-Apr-21 07:30N 35°30' E 139°46'1 0.5
2017-Apr-21 05:26N 35°31' E 139°46'0 0.7
2017-Apr-21 05:01N 35°31' E 139°46'0 0.0
2017-Apr-21 04:26N 35°31' E 139°46'0 0.0
2017-Apr-21 03:50N 35°31' E 139°46'0 0.0
2017-Apr-21 00:51N 35°31' E 139°46'1 2.3
2017-Apr-21 00:30N 35°30' E 139°46'2 3.6
2017-Apr-21 00:00N 35°29' E 139°46'0 0.0
2017-Apr-20 23:27N 35°29' E 139°46'0 0.0
2017-Apr-20 23:00N 35°29' E 139°46'0 0.0
2017-Apr-20 22:30N 35°29' E 139°46'0 0.0
2017-Apr-20 22:00N 35°29' E 139°46'0 0.0
2017-Apr-20 21:30N 35°29' E 139°46'0 0.0
2017-Apr-20 20:57N 35°29' E 139°46'0 0.0
2017-Apr-20 20:30N 35°29' E 139°46'0 0.1
2017-Apr-20 20:00N 35°29' E 139°46'0 0.0
2017-Apr-20 19:30N 35°29' E 139°46'0 0.0
2017-Apr-20 19:00N 35°29' E 139°46'0 0.0
2017-Apr-20 18:30N 35°29' E 139°46'0 0.0
2017-Apr-20 18:00N 35°29' E 139°46'0 0.0
2017-Apr-20 17:30N 35°29' E 139°46'0 0.0
2017-Apr-20 17:00N 35°29' E 139°46'0 0.0
2017-Apr-20 16:30N 35°29' E 139°46'0 0.0
2017-Apr-20 16:00N 35°29' E 139°46'0 0.0
2017-Apr-20 15:30N 35°29' E 139°46'0 0.0
2017-Apr-20 15:00N 35°29' E 139°46'0 0.0
2017-Apr-20 14:30N 35°29' E 139°46'0 0.0
2017-Apr-20 13:30N 35°29' E 139°46'0 0.0
2017-Apr-20 13:00N 35°29' E 139°46'0 0.0
2017-Apr-20 12:30N 35°29' E 139°46'0 0.0
2017-Apr-20 12:00N 35°29' E 139°46'0 0.0
2017-Apr-20 11:30N 35°29' E 139°46'0 0.0
2017-Apr-20 11:00N 35°29' E 139°46'0 0.0
2017-Apr-20 10:30N 35°29' E 139°46'3 5.0
2017-Apr-20 10:00N 35°31' E 139°46'0 0.1
2017-Apr-20 06:31N 35°31' E 139°46'0 0.0
2017-Apr-20 06:29N 35°31' E 139°46'0 0.6
2017-Apr-20 06:00N 35°31' E 139°46'0 0.0
2017-Apr-20 05:19N 35°31' E 139°46'0 0.0
2017-Apr-20 04:49N 35°31' E 139°46'0 0.0
2017-Apr-20 04:28N 35°31' E 139°46'0 0.0
2017-Apr-20 03:52N 35°31' E 139°46'0 0.0
2017-Apr-20 03:19N 35°31' E 139°46'0 0.0
2017-Apr-20 02:52N 35°31' E 139°46'0 0.0
2017-Apr-20 02:19N 35°31' E 139°46'0 0.0
2017-Apr-20 01:58N 35°31' E 139°46'0 0.0
2017-Apr-20 01:28N 35°31' E 139°46'0 0.0
2017-Apr-20 00:46N 35°31' E 139°46'0 0.0
2017-Apr-20 00:28N 35°31' E 139°46'0 0.0
2017-Apr-19 23:58N 35°31' E 139°46'0 0.0
2017-Apr-19 23:25N 35°31' E 139°46'0 1.2
2017-Apr-19 23:00N 35°31' E 139°46'2 4.2
2017-Apr-19 22:31N 35°29' E 139°46'0 0.0
2017-Apr-19 21:58N 35°29' E 139°46'0 0.0
2017-Apr-19 21:28N 35°29' E 139°46'0 0.0
2017-Apr-19 20:58N 35°29' E 139°46'0 0.0
2017-Apr-19 20:28N 35°29' E 139°46'0 0.0
2017-Apr-19 19:58N 35°29' E 139°46'0 0.0
2017-Apr-19 19:28N 35°29' E 139°46'0 0.0
2017-Apr-19 18:58N 35°29' E 139°46'0 0.0
2017-Apr-19 18:28N 35°29' E 139°46'0 0.0
2017-Apr-19 17:58N 35°29' E 139°46'0 0.0
2017-Apr-19 17:28N 35°29' E 139°46'0 0.0
2017-Apr-19 16:58N 35°29' E 139°46'0 0.0
2017-Apr-19 16:28N 35°29' E 139°46'0 0.1
2017-Apr-19 15:58N 35°29' E 139°46'0 0.1
2017-Apr-19 15:28N 35°29' E 139°46'0 0.1
2017-Apr-19 14:58N 35°29' E 139°46'0 0.1
2017-Apr-19 14:25N 35°29' E 139°46'0 0.0
2017-Apr-19 13:25N 35°29' E 139°46'0 0.0
2017-Apr-19 12:58N 35°29' E 139°46'0 0.1
2017-Apr-19 12:28N 35°29' E 139°46'0 0.1
2017-Apr-19 11:58N 35°29' E 139°46'0 0.0
2017-Apr-19 11:28N 35°29' E 139°46'0 0.0
2017-Apr-19 10:55N 35°29' E 139°46'0 0.0
2017-Apr-19 10:28N 35°29' E 139°46'0 0.0
2017-Apr-19 09:55N 35°29' E 139°46'0 0.0
2017-Apr-19 09:28N 35°29' E 139°46'0 0.0
2017-Apr-19 08:58N 35°29' E 139°46'0 0.1
2017-Apr-19 08:28N 35°29' E 139°46'0 0.0
2017-Apr-19 07:58N 35°29' E 139°46'0 0.0
2017-Apr-19 07:25N 35°29' E 139°46'0 0.1
2017-Apr-19 06:53N 35°29' E 139°46'2 5.2
2017-Apr-19 06:30N 35°30' E 139°47'2 0.9
2017-Apr-19 04:21N 35°31' E 139°46'0 0.9
2017-Apr-19 04:01N 35°31' E 139°46'0 0.0
2017-Apr-19 03:30N 35°31' E 139°46'0 0.0
2017-Apr-19 01:45N 35°31' E 139°46'0 0.0
2017-Apr-19 01:27N 35°31' E 139°46'0 0.0
2017-Apr-19 00:57N 35°31' E 139°46'0 0.0
2017-Apr-19 00:30N 35°31' E 139°46'0 0.0
2017-Apr-19 00:00N 35°31' E 139°46'2 3.9
2017-Apr-18 23:30N 35°30' E 139°47'2 3.3
2017-Apr-18 22:58N 35°29' E 139°46'0 0.0
2017-Apr-18 22:31N 35°29' E 139°46'0 0.1
2017-Apr-18 21:55N 35°29' E 139°46'0 0.0
2017-Apr-18 21:28N 35°29' E 139°46'0 0.0
2017-Apr-18 20:58N 35°29' E 139°46'0 0.0
2017-Apr-18 20:28N 35°29' E 139°46'0 0.0
2017-Apr-18 19:58N 35°29' E 139°46'0 0.0
2017-Apr-18 19:25N 35°29' E 139°46'0 0.1
2017-Apr-18 19:00N 35°29' E 139°45'0 0.1
2017-Apr-18 18:28N 35°29' E 139°46'0 0.0
2017-Apr-18 18:00N 35°29' E 139°46'0 0.0
2017-Apr-18 17:28N 35°29' E 139°46'0 0.0
2017-Apr-18 16:58N 35°29' E 139°46'0 0.1
2017-Apr-18 16:28N 35°29' E 139°45'0 0.0
2017-Apr-18 15:57N 35°29' E 139°45'0 0.0
2017-Apr-18 15:25N 35°29' E 139°45'0 0.0
2017-Apr-18 14:55N 35°29' E 139°45'0 0.1
2017-Apr-18 13:55N 35°29' E 139°46'0 0.0
2017-Apr-18 13:28N 35°29' E 139°46'0 0.1
2017-Apr-18 13:01N 35°29' E 139°45'0 0.1
2017-Apr-18 12:25N 35°29' E 139°46'0 0.0
2017-Apr-18 12:00N 35°29' E 139°46'  

Dump ship's entire track history